Time;durP1;ratioP1;P1;durP2;ratioP2;P2;SDS_P1;SDS_P2;PMS_P1;PMS_P2;Temp;Humidity;BMP_temperature;BMP_pressure;BME280_temperature;BME280_humidity;BME280_pressure;Samples;Min_cycle;Max_cycle;Signal;HPM_P1;HPM_P2
2023/10/08 00:03:11;;;;;;;5.63;4.13;;;;;;;17.62;48.37;99558.94;7047850;28;20265;-85
2023/10/08 00:06:34;;;;;;;4.73;3.60;;;;;;;17.78;48.18;99592.91;7040644;28;20709;-85
2023/10/08 00:09:56;;;;;;;5.00;3.97;;;;;;;17.70;47.15;99558.59;7043341;28;20199;-85
2023/10/08 00:13:17;;;;;;;4.90;3.80;;;;;;;17.47;46.51;99487.66;7035554;28;20298;-85
2023/10/08 00:16:39;;;;;;;6.07;3.43;;;;;;;17.73;47.08;99560.03;7039742;28;20365;-85
2023/10/08 00:20:01;;;;;;;6.33;3.83;;;;;;;18.03;46.99;99579.91;7044045;28;20316;-85
2023/10/08 00:23:26;;;;;;;6.53;4.10;;;;;;;18.15;46.54;99586.22;7029922;28;20323;-85
2023/10/08 00:26:47;;;;;;;6.33;3.73;;;;;;;17.49;48.35;99589.13;7042655;28;20226;-85
2023/10/08 00:30:17;;;;;;;6.60;3.77;;;;;;;17.70;48.08;99568.69;7047701;28;20660;-85
2023/10/08 00:33:39;;;;;;;6.57;4.03;;;;;;;17.77;48.33;99574.88;7042625;28;20205;-86
2023/10/08 00:37:00;;;;;;;6.30;3.73;;;;;;;17.53;48.99;99565.78;7035845;28;20218;-85
2023/10/08 00:40:24;;;;;;;6.67;4.03;;;;;;;17.72;48.99;99559.22;7045048;28;20730;-85
2023/10/08 00:43:45;;;;;;;5.63;3.73;;;;;;;17.61;49.07;99562.72;7041400;28;20330;-85
2023/10/08 00:47:07;;;;;;;8.57;3.90;;;;;;;17.77;47.89;99561.25;7041068;28;20202;-85
2023/10/08 00:50:42;;;;;;;5.77;3.90;;;;;;;17.93;47.83;99546.94;7046235;28;20289;-85
2023/10/08 00:54:06;;;;;;;6.73;3.70;;;;;;;17.95;47.93;99545.63;7040175;28;20233;-85
2023/10/08 00:57:30;;;;;;;6.43;3.43;;;;;;;17.81;47.74;99533.25;7031960;28;20211;-85
2023/10/08 01:00:52;;;;;;;5.23;3.50;;;;;;;17.77;47.75;99553.06;7044145;28;20661;-86
2023/10/08 01:04:23;;;;;;;5.10;3.80;;;;;;;17.65;48.67;99538.56;7037102;28;20263;-86
2023/10/08 01:07:48;;;;;;;8.03;3.80;;;;;;;17.01;49.46;99470.25;7045129;28;20210;-86
2023/10/08 01:11:21;;;;;;;5.83;3.90;;;;;;;17.79;48.58;99537.28;7028599;28;20672;-85
2023/10/08 01:14:46;;;;;;;6.97;3.37;;;;;;;17.32;49.37;99519.06;7033329;28;20219;-82
2023/10/08 01:18:14;;;;;;;5.30;3.40;;;;;;;17.50;49.38;99527.22;7055307;28;20667;-85
2023/10/08 01:21:37;;;;;;;4.57;3.13;;;;;;;17.79;48.98;99534.56;7053682;28;20187;-85
2023/10/08 01:25:01;;;;;;;8.13;3.90;;;;;;;17.56;49.67;99534.47;7054024;28;20262;-85
2023/10/08 01:28:28;;;;;;;8.30;4.13;;;;;;;17.88;48.46;99533.16;7052426;28;20206;-85
2023/10/08 01:31:53;;;;;;;10.57;3.60;;;;;;;17.54;48.85;99501.16;7047885;28;20360;-85
2023/10/08 01:35:22;;;;;;;5.83;3.27;;;;;;;17.48;49.68;99537.53;7025387;28;20303;-85
2023/10/08 01:38:48;;;;;;;5.67;3.97;;;;;;;17.58;49.70;99552.28;7026228;28;20653;-85
2023/10/08 01:42:17;;;;;;;7.30;3.87;;;;;;;17.31;50.22;99536.50;7024517;28;20227;-84
2023/10/08 01:45:43;;;;;;;6.17;4.07;;;;;;;17.71;49.17;99546.66;7024783;28;20224;-85
2023/10/08 01:49:08;;;;;;;4.47;3.37;;;;;;;17.52;49.69;99515.03;7041389;28;20207;-85
2023/10/08 01:52:30;;;;;;;5.13;3.70;;;;;;;17.57;49.86;99542.44;7027458;28;20193;-85
2023/10/08 01:55:53;;;;;;;5.63;3.93;;;;;;;17.78;49.53;99550.09;7049499;28;20219;-85
2023/10/08 01:59:16;;;;;;;5.23;4.00;;;;;;;17.58;49.50;99502.38;7045118;28;20198;-83
2023/10/08 02:02:40;;;;;;;5.23;3.87;;;;;;;17.10;50.81;99486.03;7056278;28;20238;-84
2023/10/08 02:06:05;;;;;;;5.03;3.67;;;;;;;17.49;50.55;99547.38;7051093;28;20219;-85
2023/10/08 02:09:27;;;;;;;4.73;3.50;;;;;;;17.31;50.70;99545.50;7052855;28;20638;-85
2023/10/08 02:12:49;;;;;;;5.93;3.90;;;;;;;17.64;50.02;99551.34;7036216;28;20204;-85
2023/10/08 02:16:11;;;;;;;8.53;4.03;;;;;;;17.61;50.24;99561.88;7052094;28;20364;-85
2023/10/08 02:19:34;;;;;;;6.40;3.97;;;;;;;17.73;49.75;99562.75;7023397;28;20740;-85
2023/10/08 02:22:56;;;;;;;5.33;3.70;;;;;;;17.54;50.50;99548.38;7024351;28;20227;-85
2023/10/08 02:26:19;;;;;;;6.70;3.70;;;;;;;17.55;50.91;99554.63;7024996;28;20369;-85
2023/10/08 02:29:41;;;;;;;7.17;3.97;;;;;;;16.82;51.91;99523.09;7025311;28;20203;-85
2023/10/08 02:33:13;;;;;;;6.13;4.07;;;;;;;17.38;50.92;99553.59;7035817;28;20202;-85
2023/10/08 02:36:36;;;;;;;7.20;3.70;;;;;;;17.19;51.70;99554.69;7030704;28;20222;-85
2023/10/08 02:39:58;;;;;;;6.67;3.73;;;;;;;17.07;51.57;99529.25;7032666;28;20675;-85
2023/10/08 02:43:20;;;;;;;7.37;3.77;;;;;;;17.12;51.74;99562.13;7046414;28;20237;-85
2023/10/08 02:46:42;;;;;;;7.27;4.30;;;;;;;16.83;52.97;99573.78;7052491;28;20278;-85
2023/10/08 02:50:08;;;;;;;5.13;3.57;;;;;;;16.78;52.92;99554.53;7046243;28;20989;-85
2023/10/08 02:53:30;;;;;;;7.53;3.97;;;;;;;16.74;52.70;99556.91;7051407;28;20203;-85
2023/10/08 02:56:57;;;;;;;5.67;3.93;;;;;;;16.75;53.07;99547.66;7052334;28;20204;-85
2023/10/08 03:00:20;;;;;;;5.50;3.67;;;;;;;16.69;53.70;99548.56;7052822;28;20336;-85
2023/10/08 03:03:42;;;;;;;6.33;4.23;;;;;;;16.56;53.77;99546.00;7051927;28;20588;-85
2023/10/08 03:07:11;;;;;;;5.60;3.53;;;;;;;16.73;53.65;99554.38;7032139;28;20341;-85
2023/10/08 03:10:33;;;;;;;5.97;3.33;;;;;;;16.68;52.90;99536.00;7029096;28;20626;-85
2023/10/08 03:13:56;;;;;;;8.93;3.63;;;;;;;15.78;55.51;99552.09;7042117;28;20628;-85
2023/10/08 03:17:20;;;;;;;6.70;3.97;;;;;;;16.14;55.17;99524.19;7023493;28;20198;-84
2023/10/08 03:20:45;;;;;;;6.30;3.70;;;;;;;16.15;53.89;99528.59;7023948;28;20200;-85
2023/10/08 03:24:12;;;;;;;6.90;4.10;;;;;;;16.41;54.38;99534.66;7023650;28;20229;-84
2023/10/08 03:27:41;;;;;;;7.03;3.90;;;;;;;15.90;55.13;99531.31;7042636;28;20848;-85
2023/10/08 03:31:05;;;;;;;9.93;3.80;;;;;;;16.29;54.00;99530.13;7035121;28;20528;-85
2023/10/08 03:34:33;;;;;;;7.23;3.50;;;;;;;16.36;54.11;99541.75;7049484;28;20228;-85
2023/10/08 03:38:17;;;;;;;8.00;4.17;;;;;;;16.53;53.49;99538.28;7057929;28;20193;-85
2023/10/08 03:41:39;;;;;;;6.30;3.77;;;;;;;16.71;52.39;99556.50;7049741;28;20584;-85
2023/10/08 03:45:10;;;;;;;9.00;6.67;;;;;;;16.21;53.27;99511.38;7036510;28;20222;-85
2023/10/08 03:48:36;;;;;;;7.07;4.43;;;;;;;16.32;53.81;99565.88;7028847;28;20240;-85
2023/10/08 03:51:57;;;;;;;6.40;3.77;;;;;;;16.22;53.20;99568.25;7028617;28;20289;-85
2023/10/08 03:55:26;;;;;;;7.27;3.73;;;;;;;16.35;53.71;99573.59;7037583;28;20363;-85
2023/10/08 03:58:49;;;;;;;5.47;3.80;;;;;;;15.94;54.69;99570.59;7028299;28;20183;-85
2023/10/08 04:02:14;;;;;;;6.23;3.83;;;;;;;16.22;54.18;99567.44;7037032;28;20209;-84
2023/10/08 04:05:49;;;;;;;6.57;4.00;;;;;;;15.86;53.60;99532.78;7029149;28;20600;-85
2023/10/08 04:09:23;;;;;;;4.83;3.53;;;;;;;16.28;53.07;99572.00;7028652;28;20191;-85
2023/10/08 04:12:48;;;;;;;9.27;3.90;;;;;;;16.01;53.60;99548.78;7034508;28;20745;-84
2023/10/08 04:16:11;;;;;;;8.07;4.07;;;;;;;15.79;53.77;99547.47;7054963;28;20217;-85
2023/10/08 04:19:33;;;;;;;5.83;3.80;;;;;;;15.61;54.37;99547.41;7054980;28;20296;-85
2023/10/08 04:22:55;;;;;;;12.13;4.20;;;;;;;15.87;54.51;99539.06;7055834;28;20591;-85
2023/10/08 04:26:17;;;;;;;5.20;3.50;;;;;;;16.20;52.62;99539.59;7040817;28;20221;-85
2023/10/08 04:29:38;;;;;;;6.43;4.43;;;;;;;15.65;54.58;99545.91;7034895;28;20285;-85
2023/10/08 04:33:06;;;;;;;6.43;4.07;;;;;;;16.30;52.72;99537.22;7044486;28;20719;-85
2023/10/08 04:36:27;;;;;;;9.13;4.50;;;;;;;15.96;53.84;99540.44;7027199;28;20707;-85
2023/10/08 04:39:58;;;;;;;7.33;4.40;;;;;;;15.84;54.14;99528.63;7037931;28;20206;-85
2023/10/08 04:43:24;;;;;;;6.50;3.87;;;;;;;15.80;54.27;99525.50;7031499;28;20238;-85
2023/10/08 04:46:51;;;;;;;5.87;3.87;;;;;;;16.09;54.22;99552.06;7026673;28;20279;-85
2023/10/08 04:50:17;;;;;;;6.27;4.00;;;;;;;16.26;53.04;99550.44;7052487;28;20680;-85
2023/10/08 04:53:40;;;;;;;9.00;3.90;;;;;;;16.20;53.09;99547.78;7051950;28;20576;-85
2023/10/08 04:57:06;;;;;;;7.57;3.87;;;;;;;16.27;52.35;99548.56;7027285;28;20299;-85
2023/10/08 05:00:41;;;;;;;6.60;4.17;;;;;;;16.09;52.56;99553.94;7035742;28;20190;-85
2023/10/08 05:04:23;;;;;;;8.63;4.23;;;;;;;16.32;51.84;99551.44;7034985;28;20241;-85
2023/10/08 05:08:01;;;;;;;6.03;3.97;;;;;;;16.22;51.94;99554.66;7025878;28;20199;-85
2023/10/08 05:11:36;;;;;;;7.97;3.83;;;;;;;16.11;52.70;99540.97;7047240;28;20662;-85
2023/10/08 05:15:21;;;;;;;6.20;3.77;;;;;;;16.10;53.17;99553.72;7027402;28;20224;-85
2023/10/08 05:22:40;;;;;;;10.97;4.07;;;;;;;15.70;53.36;99571.38;7042965;28;20291;-85
2023/10/08 05:26:08;;;;;;;5.47;3.57;;;;;;;15.76;53.53;99556.91;7052123;28;20222;-85
2023/10/08 05:29:52;;;;;;;7.10;4.27;;;;;;;16.11;52.73;99566.25;7055150;28;20210;-85
2023/10/08 05:33:23;;;;;;;8.43;4.00;;;;;;;16.25;52.45;99558.81;7034195;28;20201;-85
2023/10/08 05:37:11;;;;;;;6.93;3.27;;;;;;;16.12;52.32;99558.94;7054685;28;20225;-85
2023/10/08 05:41:04;;;;;;;7.43;3.87;;;;;;;16.12;52.50;99535.31;7026378;28;20237;-85
2023/10/08 05:44:39;;;;;;;5.70;3.50;;;;;;;16.11;52.43;99571.69;7025995;28;20255;-85
2023/10/08 05:48:15;;;;;;;6.30;3.83;;;;;;;15.70;53.83;99568.66;7040426;28;20242;-85
2023/10/08 05:52:11;;;;;;;8.17;3.90;;;;;;;15.69;53.27;99526.22;7033830;28;20198;-84
2023/10/08 05:55:34;;;;;;;7.10;4.10;;;;;;;15.69;54.43;99571.63;7035473;28;20599;-81
2023/10/08 05:59:14;;;;;;;7.63;3.80;;;;;;;15.83;54.23;99586.78;7032001;28;20188;-81
2023/10/08 06:02:54;;;;;;;4.87;3.50;;;;;;;15.74;53.95;99582.69;7029976;28;20216;-84
2023/10/08 06:06:36;;;;;;;7.57;3.47;;;;;;;15.75;54.13;99554.44;7055840;28;20361;-82
2023/10/08 06:10:02;;;;;;;6.93;3.93;;;;;;;15.83;54.68;99579.47;7043473;28;20284;-85
2023/10/08 06:13:45;;;;;;;6.30;3.83;;;;;;;16.14;53.61;99544.06;7030101;28;20795;-84
2023/10/08 06:17:23;;;;;;;8.97;4.03;;;;;;;16.50;52.89;99584.16;7038825;28;20200;-85
2023/10/08 06:20:47;;;;;;;6.60;3.93;;;;;;;16.06;53.46;99568.00;7042344;28;20331;-88
2023/10/08 06:24:09;;;;;;;5.83;3.90;;;;;;;16.33;53.23;99575.69;7052222;28;20282;-85
2023/10/08 06:27:32;;;;;;;7.17;3.87;;;;;;;16.17;53.84;99573.53;7054203;28;20252;-85
2023/10/08 06:30:55;;;;;;;8.90;4.00;;;;;;;16.11;53.71;99539.06;7050033;28;20212;-86
2023/10/08 06:34:17;;;;;;;7.50;4.00;;;;;;;16.26;53.78;99584.97;7023210;28;20257;-85
2023/10/08 06:37:40;;;;;;;8.40;3.83;;;;;;;15.98;53.87;99539.16;7023989;28;20247;-85
2023/10/08 06:41:08;;;;;;;5.67;3.70;;;;;;;16.53;53.42;99583.72;7036482;28;20277;-84
2023/10/08 06:44:30;;;;;;;6.03;3.50;;;;;;;16.47;53.09;99563.69;7044587;28;20678;-83
2023/10/08 06:47:51;;;;;;;8.07;5.13;;;;;;;17.05;52.32;99575.81;7041766;28;20272;-83
2023/10/08 06:51:13;;;;;;;7.67;5.47;;;;;;;17.05;52.10;99580.44;7031335;28;20243;-85
2023/10/08 06:54:36;;;;;;;8.23;5.10;;;;;;;16.93;52.55;99574.09;7050381;28;20258;-86
2023/10/08 06:58:00;;;;;;;9.43;5.40;;;;;;;16.90;52.68;99572.66;7024172;28;20632;-85
2023/10/08 07:01:22;;;;;;;7.67;3.90;;;;;;;16.73;53.75;99589.78;7026360;28;20203;-82
2023/10/08 07:04:46;;;;;;;5.73;3.93;;;;;;;16.77;53.26;99601.91;7039387;28;20691;-83
2023/10/08 07:08:09;;;;;;;7.87;4.50;;;;;;;16.95;52.22;99577.41;7030402;28;20236;-83
2023/10/08 07:11:34;;;;;;;13.70;6.67;;;;;;;17.24;52.65;99607.47;7039189;28;20208;-83
2023/10/08 07:14:58;;;;;;;7.93;4.80;;;;;;;17.01;52.46;99607.31;7047125;28;20221;-87
2023/10/08 07:18:24;;;;;;;7.20;4.63;;;;;;;17.21;52.43;99615.25;7050089;28;20290;-84
2023/10/08 07:21:46;;;;;;;9.40;4.93;;;;;;;17.62;51.93;99610.75;7055653;28;20185;-84
2023/10/08 07:25:09;;;;;;;10.60;5.40;;;;;;;17.90;51.14;99618.31;7061067;28;20218;-83
2023/10/08 07:28:33;;;;;;;10.83;5.53;;;;;;;18.15;50.01;99606.19;7062138;28;20237;-82
2023/10/08 07:31:55;;;;;;;10.87;4.87;;;;;;;18.21;49.88;99607.97;7057933;28;20209;-82
2023/10/08 07:35:24;;;;;;;6.80;4.63;;;;;;;18.52;49.66;99598.69;7056512;28;20220;-82
2023/10/08 07:38:46;;;;;;;7.27;4.50;;;;;;;18.49;50.19;99599.97;7056925;28;20209;-83
2023/10/08 07:42:08;;;;;;;8.50;4.87;;;;;;;18.53;50.36;99603.91;7042554;28;20326;-82
2023/10/08 07:45:35;;;;;;;6.60;4.50;;;;;;;18.51;51.10;99610.69;7057840;28;20356;-83
2023/10/08 07:48:58;;;;;;;8.70;4.47;;;;;;;18.71;50.94;99598.34;7045578;28;20228;-82
2023/10/08 07:52:19;;;;;;;8.80;4.40;;;;;;;18.87;50.49;99600.31;7049630;28;20683;-83
2023/10/08 07:55:41;;;;;;;8.13;4.80;;;;;;;18.86;50.40;99603.31;7038703;28;20291;-83
2023/10/08 07:59:08;;;;;;;8.30;4.77;;;;;;;18.61;51.07;99597.25;7055715;28;20265;-81
2023/10/08 08:02:31;;;;;;;6.63;4.73;;;;;;;19.06;49.19;99577.25;7044232;28;20284;-85
2023/10/08 08:05:53;;;;;;;6.13;4.53;;;;;;;19.15;49.79;99566.75;7063057;28;20227;-83
2023/10/08 08:09:19;;;;;;;12.27;4.83;;;;;;;19.08;50.33;99560.59;7056837;28;20193;-83
2023/10/08 08:12:41;;;;;;;11.47;4.50;;;;;;;18.91;51.41;99614.34;7051048;28;20229;-85
2023/10/08 08:16:16;;;;;;;7.90;4.90;;;;;;;18.71;53.53;99633.84;7039985;28;20220;-81
2023/10/08 08:19:39;;;;;;;8.47;4.40;;;;;;;20.11;49.54;99644.28;7047817;27;20571;-82
2023/10/08 08:23:06;;;;;;;6.67;4.60;;;;;;;20.37;48.50;99652.69;7062775;28;20279;-81
2023/10/08 08:26:28;;;;;;;6.70;4.40;;;;;;;21.18;46.88;99652.94;7059137;28;20232;-83
2023/10/08 08:29:50;;;;;;;7.90;4.50;;;;;;;21.79;44.58;99645.25;7038887;28;20642;-81
2023/10/08 08:33:11;;;;;;;6.10;4.30;;;;;;;22.28;43.15;99638.63;7037259;28;20255;-81
2023/10/08 08:36:37;;;;;;;8.87;4.53;;;;;;;22.50;42.05;99647.69;7047118;28;20237;-82
2023/10/08 08:39:59;;;;;;;8.13;4.80;;;;;;;22.42;44.10;99658.28;7061193;28;20250;-81
2023/10/08 08:43:21;;;;;;;6.20;4.47;;;;;;;22.44;42.07;99618.50;7059413;28;20668;-81
2023/10/08 08:46:42;;;;;;;9.80;4.63;;;;;;;23.51;41.66;99671.22;7036565;28;20247;-81
2023/10/08 08:50:08;;;;;;;8.93;4.87;;;;;;;24.19;40.32;99674.56;7047272;28;20241;-82
2023/10/08 08:53:33;;;;;;;9.43;5.10;;;;;;;24.20;38.85;99675.41;7062017;28;20198;-84
2023/10/08 08:56:55;;;;;;;8.00;4.30;;;;;;;24.63;36.16;99650.09;7060674;28;20700;-85
2023/10/08 09:00:19;;;;;;;7.47;4.60;;;;;;;25.09;36.24;99651.72;7042326;28;20208;-82
2023/10/08 09:03:40;;;;;;;7.27;4.63;;;;;;;24.63;37.14;99663.91;7061104;28;20219;-82
2023/10/08 09:07:03;;;;;;;6.07;4.47;;;;;;;25.15;37.20;99658.91;7058732;28;20198;-84
2023/10/08 09:10:28;;;;;;;7.43;4.33;;;;;;;24.28;38.48;99656.38;7060262;28;20203;-86
2023/10/08 09:13:49;;;;;;;8.57;4.20;;;;;;;25.55;36.48;99653.31;7053365;28;20204;-81
2023/10/08 09:17:15;;;;;;;9.20;4.40;;;;;;;26.07;32.78;99650.91;7034452;28;20667;-83
2023/10/08 09:20:42;;;;;;;11.20;4.27;;;;;;;26.53;31.61;99644.75;7035660;28;20214;-82
2023/10/08 09:24:08;;;;;;;7.00;3.93;;;;;;;26.55;29.99;99647.28;7039111;28;20229;-83
2023/10/08 09:27:31;;;;;;;9.90;3.90;;;;;;;25.75;32.16;99647.69;7038374;28;20197;-81
2023/10/08 09:30:55;;;;;;;6.47;4.17;;;;;;;25.61;33.06;99649.41;7046117;28;20204;-83
2023/10/08 09:34:17;;;;;;;7.97;4.13;;;;;;;26.15;31.67;99650.28;7044839;28;20738;-84
2023/10/08 09:37:39;;;;;;;7.17;3.90;;;;;;;26.37;31.41;99643.22;7050881;28;20205;-82
2023/10/08 09:41:02;;;;;;;7.00;4.00;;;;;;;25.89;31.82;99637.69;7047936;28;20778;-82
2023/10/08 09:44:26;;;;;;;6.53;3.87;;;;;;;26.58;31.93;99663.28;7054454;28;20231;-82
2023/10/08 09:47:52;;;;;;;5.40;3.70;;;;;;;25.60;32.78;99667.91;7051309;28;20690;-83
2023/10/08 09:51:14;;;;;;;7.07;4.27;;;;;;;25.97;33.12;99657.31;7035849;28;20200;-81
2023/10/08 09:54:40;;;;;;;6.47;4.00;;;;;;;26.46;32.45;99643.44;7028691;28;21626;-81
2023/10/08 09:58:01;;;;;;;5.33;3.83;;;;;;;26.11;33.10;99630.69;7042173;28;20194;-90
2023/10/08 10:01:26;;;;;;;5.33;3.73;;;;;;;25.50;34.68;99648.63;7046050;28;20355;-85
2023/10/08 10:04:48;;;;;;;5.20;3.53;;;;;;;25.89;34.36;99621.91;7048385;28;20692;-84
2023/10/08 10:08:10;;;;;;;6.73;4.83;;;;;;;25.91;34.70;99636.34;7035093;28;20207;-86
2023/10/08 10:11:32;;;;;;;5.33;4.37;;;;;;;26.32;34.28;99654.31;7051330;28;20231;-87
2023/10/08 10:14:55;;;;;;;9.77;4.20;;;;;;;26.48;34.61;99672.47;7053527;28;20312;-88
2023/10/08 10:18:30;;;;;;;5.00;3.90;;;;;;;26.13;33.86;99677.41;7037539;28;20297;-84
2023/10/08 10:21:52;;;;;;;8.40;3.90;;;;;;;26.61;33.74;99684.88;7043256;28;20794;-82
2023/10/08 10:25:17;;;;;;;7.63;4.00;;;;;;;26.63;33.93;99682.63;7033101;28;20754;-84
2023/10/08 10:28:40;;;;;;;7.00;4.00;;;;;;;26.59;34.26;99676.00;7054210;28;20188;-83
2023/10/08 10:32:05;;;;;;;7.27;3.90;;;;;;;26.72;32.80;99667.06;7053427;27;20249;-84
2023/10/08 10:35:28;;;;;;;4.57;3.77;;;;;;;26.74;33.53;99657.38;7043273;28;20221;-83
2023/10/08 10:38:50;;;;;;;7.80;4.03;;;;;;;26.32;33.48;99670.09;7045063;28;20296;-84
2023/10/08 10:42:20;;;;;;;7.50;3.57;;;;;;;26.57;34.06;99668.00;7052157;28;20231;-83
2023/10/08 10:45:43;;;;;;;7.60;4.37;;;;;;;26.37;33.96;99617.50;7051750;28;20237;-83
2023/10/08 10:49:17;;;;;;;6.77;4.53;;;;;;;26.83;33.48;99672.22;7041641;28;20212;-83
2023/10/08 10:52:53;;;;;;;7.00;3.80;;;;;;;26.95;33.61;99672.66;7046169;28;20212;-84
2023/10/08 10:56:18;;;;;;;7.03;4.10;;;;;;;26.64;34.33;99667.66;7047147;28;20230;-84
2023/10/08 10:59:39;;;;;;;8.93;4.00;;;;;;;25.83;34.74;99672.00;7052504;28;20260;-84
2023/10/08 11:03:02;;;;;;;9.57;5.03;;;;;;;26.64;34.65;99657.44;7048221;28;20248;-85
2023/10/08 11:06:26;;;;;;;8.13;4.70;;;;;;;27.14;34.28;99645.91;7027363;28;20228;-84
2023/10/08 11:09:51;;;;;;;8.03;3.93;;;;;;;27.84;33.31;99644.34;7044936;28;20654;-82
2023/10/08 11:13:15;;;;;;;7.37;4.10;;;;;;;28.01;31.83;99611.41;7044606;28;20223;-83
2023/10/08 11:16:37;;;;;;;7.80;3.80;;;;;;;28.02;32.14;99649.09;7023131;28;20224;-84
2023/10/08 11:19:59;;;;;;;6.23;4.13;;;;;;;27.16;32.36;99588.34;7024067;28;20209;-82
2023/10/08 11:23:34;;;;;;;6.63;3.60;;;;;;;28.14;32.13;99646.69;7044264;28;20209;-83
2023/10/08 11:27:14;;;;;;;8.50;3.70;;;;;;;27.62;32.39;99619.09;7050865;28;20220;-83
2023/10/08 11:30:38;;;;;;;6.73;4.03;;;;;;;27.56;32.10;99628.59;7043309;28;20194;-83
2023/10/08 11:34:00;;;;;;;7.17;3.87;;;;;;;28.42;29.87;99582.75;7025130;28;20229;-84
2023/10/08 11:37:28;;;;;;;5.57;3.90;;;;;;;29.12;30.72;99619.59;7031439;28;20205;-84
2023/10/08 11:40:51;;;;;;;5.03;3.53;;;;;;;29.50;28.92;99621.06;7023976;28;20735;-83
2023/10/08 11:44:19;;;;;;;6.70;4.90;;;;;;;29.20;29.42;99614.16;7044872;28;20224;-83
2023/10/08 11:47:42;;;;;;;6.77;4.03;;;;;;;29.52;29.33;99602.13;7054527;28;20196;-84
2023/10/08 11:51:05;;;;;;;9.60;3.90;;;;;;;28.57;30.81;99599.16;7053237;28;20207;-84
2023/10/08 11:54:27;;;;;;;9.03;4.47;;;;;;;28.96;31.37;99596.03;7036901;28;20264;-85
2023/10/08 11:57:50;;;;;;;8.43;4.10;;;;;;;29.02;29.63;99594.78;7044990;28;20902;-83
2023/10/08 12:01:15;;;;;;;6.03;4.30;;;;;;;29.15;29.98;99585.66;7054108;28;20289;-82
2023/10/08 12:04:37;;;;;;;6.00;4.03;;;;;;;29.17;30.92;99586.16;7042095;28;20840;-83
2023/10/08 12:07:59;;;;;;;7.50;4.33;;;;;;;28.22;31.06;99548.94;7057537;28;20208;-86
2023/10/08 12:11:23;;;;;;;7.90;4.07;;;;;;;28.41;30.88;99592.22;7031792;28;20216;-87
2023/10/08 12:14:47;;;;;;;7.07;4.00;;;;;;;28.52;30.67;99579.00;7040351;28;20220;-87
2023/10/08 12:18:13;;;;;;;7.63;4.07;;;;;;;28.76;30.65;99577.72;7036694;28;20208;-85
2023/10/08 12:21:36;;;;;;;7.43;4.20;;;;;;;28.72;30.62;99581.44;7040090;27;20197;-83
2023/10/08 12:24:59;;;;;;;7.30;4.03;;;;;;;29.06;31.06;99571.66;7027053;28;20221;-83
2023/10/08 12:28:21;;;;;;;5.00;4.00;;;;;;;29.03;30.39;99575.06;7025500;28;20302;-82
2023/10/08 12:31:47;;;;;;;4.90;4.03;;;;;;;29.42;29.87;99564.25;7041017;28;20202;-82
2023/10/08 12:35:12;;;;;;;7.17;4.30;;;;;;;29.53;29.84;99546.25;7035541;28;20656;-84
2023/10/08 12:38:34;;;;;;;7.67;3.93;;;;;;;29.64;30.18;99546.88;7032522;28;20209;-82
2023/10/08 12:41:57;;;;;;;6.77;4.23;;;;;;;29.59;30.14;99544.19;7039891;28;20331;-82
2023/10/08 12:45:21;;;;;;;7.63;4.40;;;;;;;30.00;29.90;99545.75;7046710;28;20226;-84
2023/10/08 12:48:47;;;;;;;6.70;3.80;;;;;;;29.47;29.28;99547.47;7057081;28;20584;-82
2023/10/08 12:52:11;;;;;;;10.47;4.57;;;;;;;29.91;29.72;99544.03;7055746;28;20197;-83
2023/10/08 12:55:39;;;;;;;9.03;4.60;;;;;;;30.38;28.17;99549.03;7051840;28;20226;-80
2023/10/08 12:59:04;;;;;;;8.17;4.80;;;;;;;30.00;28.63;99522.66;7054652;28;20179;-81
2023/10/08 13:02:28;;;;;;;8.80;4.07;;;;;;;30.08;27.88;99519.16;7030721;28;20705;-82
2023/10/08 13:05:52;;;;;;;8.03;4.63;;;;;;;29.81;28.90;99550.66;7037867;28;20226;-81
2023/10/08 13:09:15;;;;;;;7.97;4.30;;;;;;;30.31;28.36;99540.31;7042821;28;20198;-80
2023/10/08 13:12:37;;;;;;;8.60;4.47;;;;;;;29.73;28.27;99545.81;7035001;28;20295;-82
2023/10/08 13:16:02;;;;;;;11.97;4.60;;;;;;;30.40;28.11;99542.03;7038123;28;20232;-83
2023/10/08 13:19:26;;;;;;;8.67;5.00;;;;;;;29.72;28.01;99544.16;7032323;28;20202;-83
2023/10/08 13:22:47;;;;;;;8.23;4.17;;;;;;;30.37;26.84;99536.28;7041646;28;20230;-82
2023/10/08 13:26:16;;;;;;;9.33;4.57;;;;;;;29.95;27.47;99540.31;7038095;28;20439;-82
2023/10/08 13:29:38;;;;;;;12.07;4.73;;;;;;;30.13;27.16;99533.78;7037344;28;20232;-83
2023/10/08 13:33:00;;;;;;;10.63;5.00;;;;;;;30.44;26.54;99528.28;7040054;28;20288;-83
2023/10/08 13:36:21;;;;;;;9.93;4.80;;;;;;;30.46;27.21;99534.34;7037539;28;20241;-82
2023/10/08 13:39:43;;;;;;;9.50;4.80;;;;;;;30.39;27.67;99517.28;7043055;28;20238;-82
2023/10/08 13:43:06;;;;;;;7.70;4.67;;;;;;;29.78;28.19;99529.03;7035880;28;20298;-83
2023/10/08 13:46:27;;;;;;;9.50;4.63;;;;;;;29.51;28.97;99519.88;7027068;28;20707;-82
2023/10/08 13:49:50;;;;;;;7.77;4.67;;;;;;;30.26;28.56;99524.56;7039320;28;20275;-84
2023/10/08 13:53:13;;;;;;;9.97;4.40;;;;;;;30.41;28.38;99515.00;7030545;28;20222;-83
2023/10/08 13:56:37;;;;;;;11.27;4.90;;;;;;;30.38;28.11;99519.22;7028344;28;20261;-86
2023/10/08 14:00:01;;;;;;;8.77;4.33;;;;;;;30.47;27.86;99509.00;7033699;28;20584;-83
2023/10/08 14:03:24;;;;;;;6.43;4.00;;;;;;;30.47;27.95;99513.72;7023455;28;20961;-83
2023/10/08 14:06:51;;;;;;;9.53;4.23;;;;;;;30.26;28.52;99515.41;7027571;28;20276;-83
2023/10/08 14:10:18;;;;;;;8.43;5.30;;;;;;;30.47;29.00;99508.16;7035031;28;20668;-84
2023/10/08 14:13:42;;;;;;;8.10;4.50;;;;;;;30.34;29.39;99509.06;7036667;28;20199;-83
2023/10/08 14:17:05;;;;;;;7.90;4.00;;;;;;;30.08;29.94;99519.97;7039127;28;20290;-84
2023/10/08 14:20:31;;;;;;;7.67;4.20;;;;;;;29.65;30.45;99531.81;7025323;28;20218;-84
2023/10/08 14:23:53;;;;;;;9.87;4.93;;;;;;;29.67;30.58;99533.16;7024781;28;20342;-84
2023/10/08 14:27:15;;;;;;;9.27;3.97;;;;;;;29.86;29.96;99522.72;7037153;28;20217;-84
2023/10/08 14:30:41;;;;;;;8.90;4.40;;;;;;;30.08;29.37;99510.81;7040077;28;20213;-82
2023/10/08 14:34:18;;;;;;;7.40;4.57;;;;;;;30.04;29.31;99521.75;7051131;28;20684;-84
2023/10/08 14:44:58;;;;;;;12.03;4.43;;;;;;;29.19;29.94;99531.13;7046254;28;20226;-85
2023/10/08 14:48:20;;;;;;;7.33;3.90;;;;;;;28.86;30.94;99532.31;7037960;28;20242;-83
2023/10/08 14:51:43;;;;;;;7.90;4.57;;;;;;;29.38;30.32;99529.88;7041734;28;20199;-83
2023/10/08 14:55:05;;;;;;;7.47;4.70;;;;;;;28.72;30.63;99514.81;7044974;28;20221;-84
2023/10/08 14:58:27;;;;;;;12.30;4.60;;;;;;;28.78;30.88;99519.13;7033489;28;20201;-83
2023/10/08 15:01:48;;;;;;;7.03;4.80;;;;;;;28.21;31.13;99523.16;7027552;28;20240;-86
2023/10/08 15:05:11;;;;;;;8.30;4.83;;;;;;;28.80;30.77;99522.41;7046964;28;20318;-83
2023/10/08 15:08:34;;;;;;;6.83;4.23;;;;;;;28.49;31.57;99521.34;7043218;28;20207;-84
2023/10/08 15:11:57;;;;;;;54.97;30.87;;;;;;;29.10;31.47;99525.47;7036008;28;20290;-85
2023/10/08 15:15:19;;;;;;;8.83;4.90;;;;;;;28.77;31.40;99523.84;7042657;28;20232;-83
2023/10/08 15:18:42;;;;;;;9.40;5.23;;;;;;;29.24;31.13;99522.69;7031622;28;20292;-83
2023/10/08 15:22:04;;;;;;;6.57;4.30;;;;;;;29.19;31.64;99526.38;7034665;28;20201;-81
2023/10/08 15:25:27;;;;;;;8.03;3.87;;;;;;;29.35;30.41;99515.78;7033953;28;20758;-83
2023/10/08 15:28:48;;;;;;;9.50;3.77;;;;;;;29.14;30.80;99512.59;7044959;28;20344;-84
2023/10/08 15:32:10;;;;;;;7.70;4.40;;;;;;;28.37;31.96;99513.47;7045365;28;20247;-83
2023/10/08 15:35:32;;;;;;;14.27;4.47;;;;;;;28.46;32.53;99510.84;7041716;28;20733;-83
2023/10/08 15:38:54;;;;;;;7.93;4.77;;;;;;;28.36;32.49;99509.03;7036507;28;20202;-83
2023/10/08 15:42:18;;;;;;;9.50;4.03;;;;;;;28.08;32.63;99507.28;7041801;28;20304;-84
2023/10/08 15:45:39;;;;;;;8.47;4.30;;;;;;;28.22;33.02;99502.63;7048241;28;20228;-84
2023/10/08 15:49:02;;;;;;;7.50;4.40;;;;;;;28.06;32.92;99494.84;7045705;28;20259;-83
2023/10/08 15:52:23;;;;;;;10.37;4.37;;;;;;;28.56;31.86;99486.53;7040414;28;20250;-83
2023/10/08 15:55:47;;;;;;;7.53;4.40;;;;;;;28.54;32.63;99494.31;7043162;28;20254;-83
2023/10/08 15:59:10;;;;;;;11.97;5.03;;;;;;;28.61;33.52;99493.91;7067114;28;20208;-82
2023/10/08 16:02:31;;;;;;;7.03;4.07;;;;;;;28.00;35.52;99485.78;7047583;28;20211;-82
2023/10/08 16:05:54;;;;;;;7.70;4.10;;;;;;;28.02;36.15;99488.28;7054760;28;20267;-80
2023/10/08 16:09:16;;;;;;;7.03;4.40;;;;;;;27.90;36.48;99497.03;7055701;28;20671;-83
2023/10/08 16:12:38;;;;;;;7.23;4.53;;;;;;;27.49;37.18;99498.72;7041562;28;20260;-81
2023/10/08 16:16:01;;;;;;;9.53;4.87;;;;;;;27.32;37.05;99492.03;7039861;28;20249;-80